sensor_id;sensor_type;location;lat;lon;timestamp;pressure;altitude;pressure_sealevel;temperature;humidity
37068;BME280;22982;42.848;25.468;2023-04-20T00:04:34;95799.94;;;8.85;100.00
37068;BME280;22982;42.848;25.468;2023-04-20T00:09:38;95789.59;;;8.84;100.00
37068;BME280;22982;42.848;25.468;2023-04-20T00:14:40;95797.38;;;9.12;100.00
37068;BME280;22982;42.848;25.468;2023-04-20T00:19:42;95795.16;;;9.20;100.00
37068;BME280;22982;42.848;25.468;2023-04-20T00:24:45;95807.38;;;9.34;100.00
37068;BME280;22982;42.848;25.468;2023-04-20T00:29:48;95803.81;;;9.35;100.00
37068;BME280;22982;42.848;25.468;2023-04-20T00:34:51;95794.75;;;9.27;100.00
37068;BME280;22982;42.848;25.468;2023-04-20T00:39:54;95789.91;;;9.20;100.00
37068;BME280;22982;42.848;25.468;2023-04-20T00:44:58;95777.31;;;9.13;100.00
37068;BME280;22982;42.848;25.468;2023-04-20T00:50:01;95792.34;;;9.24;100.00
37068;BME280;22982;42.848;25.468;2023-04-20T00:55:04;95770.78;;;9.06;100.00
37068;BME280;22982;42.848;25.468;2023-04-20T01:00:09;95777.53;;;8.95;100.00
37068;BME280;22982;42.848;25.468;2023-04-20T01:05:11;95765.94;;;8.99;100.00
37068;BME280;22982;42.848;25.468;2023-04-20T01:10:14;95786.31;;;8.94;100.00
37068;BME280;22982;42.848;25.468;2023-04-20T01:15:17;95763.97;;;8.74;100.00
37068;BME280;22982;42.848;25.468;2023-04-20T01:20:20;95784.81;;;8.76;100.00
37068;BME280;22982;42.848;25.468;2023-04-20T01:25:27;95784.16;;;8.72;100.00
37068;BME280;22982;42.848;25.468;2023-04-20T01:30:32;95790.22;;;8.58;100.00
37068;BME280;22982;42.848;25.468;2023-04-20T01:35:41;95778.59;;;8.34;100.00
37068;BME280;22982;42.848;25.468;2023-04-20T01:40:44;95784.03;;;8.00;100.00
37068;BME280;22982;42.848;25.468;2023-04-20T01:45:47;95791.88;;;8.00;100.00
37068;BME280;22982;42.848;25.468;2023-04-20T01:50:50;95776.34;;;7.67;100.00
37068;BME280;22982;42.848;25.468;2023-04-20T01:55:54;95768.69;;;7.64;100.00
37068;BME280;22982;42.848;25.468;2023-04-20T02:00:57;95782.69;;;7.47;100.00
37068;BME280;22982;42.848;25.468;2023-04-20T02:06:01;95767.63;;;7.36;100.00
37068;BME280;22982;42.848;25.468;2023-04-20T02:11:03;95772.25;;;7.31;100.00
37068;BME280;22982;42.848;25.468;2023-04-20T02:16:09;95765.97;;;7.19;100.00
37068;BME280;22982;42.848;25.468;2023-04-20T02:21:12;95786.94;;;6.84;100.00
37068;BME280;22982;42.848;25.468;2023-04-20T02:26:14;95774.84;;;6.50;100.00
37068;BME280;22982;42.848;25.468;2023-04-20T02:31:18;95792.25;;;6.49;100.00
37068;BME280;22982;42.848;25.468;2023-04-20T02:36:20;95778.69;;;6.43;100.00
37068;BME280;22982;42.848;25.468;2023-04-20T02:41:23;95781.00;;;6.49;100.00
37068;BME280;22982;42.848;25.468;2023-04-20T02:46:26;95790.47;;;6.50;100.00
37068;BME280;22982;42.848;25.468;2023-04-20T02:51:28;95784.16;;;6.21;100.00
37068;BME280;22982;42.848;25.468;2023-04-20T02:56:33;95770.25;;;6.04;100.00
37068;BME280;22982;42.848;25.468;2023-04-20T03:01:39;95788.31;;;6.07;100.00
37068;BME280;22982;42.848;25.468;2023-04-20T03:06:49;95776.09;;;5.90;100.00
37068;BME280;22982;42.848;25.468;2023-04-20T03:11:57;95778.25;;;5.82;100.00
37068;BME280;22982;42.848;25.468;2023-04-20T03:17:20;95786.19;;;5.62;100.00
37068;BME280;22982;42.848;25.468;2023-04-20T03:22:22;95801.84;;;5.24;100.00
37068;BME280;22982;42.848;25.468;2023-04-20T03:27:30;95799.47;;;5.19;100.00
37068;BME280;22982;42.848;25.468;2023-04-20T03:32:40;95796.03;;;5.18;100.00
37068;BME280;22982;42.848;25.468;2023-04-20T03:37:44;95804.75;;;5.17;100.00
37068;BME280;22982;42.848;25.468;2023-04-20T03:42:46;95802.56;;;5.08;100.00
37068;BME280;22982;42.848;25.468;2023-04-20T03:47:49;95809.72;;;5.03;100.00
37068;BME280;22982;42.848;25.468;2023-04-20T03:52:52;95820.91;;;5.05;100.00
37068;BME280;22982;42.848;25.468;2023-04-20T03:57:55;95818.16;;;5.08;100.00
37068;BME280;22982;42.848;25.468;2023-04-20T04:02:58;95805.75;;;5.15;100.00
37068;BME280;22982;42.848;25.468;2023-04-20T04:08:02;95821.81;;;5.04;100.00
37068;BME280;22982;42.848;25.468;2023-04-20T04:13:06;95838.59;;;5.16;100.00
37068;BME280;22982;42.848;25.468;2023-04-20T04:18:09;95847.34;;;4.94;100.00
37068;BME280;22982;42.848;25.468;2023-04-20T04:23:14;95805.03;;;4.73;100.00
37068;BME280;22982;42.848;25.468;2023-04-20T04:28:30;95828.91;;;5.01;100.00
37068;BME280;22982;42.848;25.468;2023-04-20T04:33:48;95827.97;;;5.02;100.00
37068;BME280;22982;42.848;25.468;2023-04-20T04:39:04;95847.53;;;5.10;100.00
37068;BME280;22982;42.848;25.468;2023-04-20T04:44:08;95838.81;;;5.11;100.00
37068;BME280;22982;42.848;25.468;2023-04-20T04:49:13;95832.06;;;5.26;100.00
37068;BME280;22982;42.848;25.468;2023-04-20T04:54:16;95836.50;;;5.24;100.00
37068;BME280;22982;42.848;25.468;2023-04-20T04:59:19;95852.56;;;5.51;100.00
37068;BME280;22982;42.848;25.468;2023-04-20T05:04:22;95855.19;;;5.69;100.00
37068;BME280;22982;42.848;25.468;2023-04-20T05:09:25;95839.84;;;5.82;100.00
37068;BME280;22982;42.848;25.468;2023-04-20T05:14:34;95851.84;;;6.21;100.00
37068;BME280;22982;42.848;25.468;2023-04-20T05:19:36;95843.66;;;6.46;100.00
37068;BME280;22982;42.848;25.468;2023-04-20T05:24:39;95824.09;;;7.21;100.00
37068;BME280;22982;42.848;25.468;2023-04-20T05:29:43;95818.44;;;7.61;100.00
37068;BME280;22982;42.848;25.468;2023-04-20T05:34:46;95831.84;;;8.61;100.00
37068;BME280;22982;42.848;25.468;2023-04-20T05:39:48;95814.09;;;9.93;100.00
37068;BME280;22982;42.848;25.468;2023-04-20T05:44:52;95819.31;;;10.73;100.00
37068;BME280;22982;42.848;25.468;2023-04-20T05:49:54;95814.78;;;14.05;92.09
37068;BME280;22982;42.848;25.468;2023-04-20T05:54:56;95783.16;;;17.45;65.61
37068;BME280;22982;42.848;25.468;2023-04-20T06:00:00;95788.03;;;20.63;46.54
37068;BME280;22982;42.848;25.468;2023-04-20T06:05:13;95784.69;;;20.94;43.75
37068;BME280;22982;42.848;25.468;2023-04-20T06:10:17;95776.91;;;21.88;42.09
37068;BME280;22982;42.848;25.468;2023-04-20T06:15:19;95790.44;;;18.52;51.54
37068;BME280;22982;42.848;25.468;2023-04-20T06:20:21;95776.19;;;15.91;53.40
37068;BME280;22982;42.848;25.468;2023-04-20T06:25:25;95801.19;;;14.74;59.42
37068;BME280;22982;42.848;25.468;2023-04-20T06:30:27;95793.22;;;14.00;63.14
37068;BME280;22982;42.848;25.468;2023-04-20T06:35:30;95764.03;;;17.51;51.76
37068;BME280;22982;42.848;25.468;2023-04-20T06:40:33;95747.59;;;22.03;41.98
37068;BME280;22982;42.848;25.468;2023-04-20T06:45:35;95744.31;;;24.97;33.37
37068;BME280;22982;42.848;25.468;2023-04-20T06:50:39;95773.66;;;21.06;38.69
37068;BME280;22982;42.848;25.468;2023-04-20T06:55:41;95761.22;;;21.85;39.71
37068;BME280;22982;42.848;25.468;2023-04-20T07:00:44;95761.63;;;24.67;34.87
37068;BME280;22982;42.848;25.468;2023-04-20T07:05:48;95754.31;;;24.39;34.71
37068;BME280;22982;42.848;25.468;2023-04-20T07:10:52;95760.41;;;23.75;36.32
37068;BME280;22982;42.848;25.468;2023-04-20T07:15:54;95778.50;;;22.29;39.30
37068;BME280;22982;42.848;25.468;2023-04-20T07:20:56;95771.53;;;20.43;41.00
37068;BME280;22982;42.848;25.468;2023-04-20T07:25:59;95779.28;;;19.96;42.48
37068;BME280;22982;42.848;25.468;2023-04-20T07:31:02;95775.44;;;19.90;43.19
37068;BME280;22982;42.848;25.468;2023-04-20T07:36:05;95801.22;;;18.32;46.17
37068;BME280;22982;42.848;25.468;2023-04-20T07:41:08;95795.41;;;17.18;47.62
37068;BME280;22982;42.848;25.468;2023-04-20T07:46:19;95801.50;;;17.28;49.33
37068;BME280;22982;42.848;25.468;2023-04-20T07:51:22;95789.88;;;19.45;44.41
37068;BME280;22982;42.848;25.468;2023-04-20T07:56:24;95762.22;;;20.64;42.04
37068;BME280;22982;42.848;25.468;2023-04-20T08:01:27;95782.84;;;20.45;41.80
37068;BME280;22982;42.848;25.468;2023-04-20T08:06:30;95797.78;;;18.58;43.87
37068;BME280;22982;42.848;25.468;2023-04-20T08:11:34;95771.59;;;17.46;47.51
37068;BME280;22982;42.848;25.468;2023-04-20T08:16:36;95786.63;;;16.51;49.52
37068;BME280;22982;42.848;25.468;2023-04-20T08:21:40;95793.16;;;16.66;51.11
37068;BME280;22982;42.848;25.468;2023-04-20T08:26:43;95789.06;;;16.81;50.90
37068;BME280;22982;42.848;25.468;2023-04-20T08:31:46;95779.53;;;16.41;52.22
37068;BME280;22982;42.848;25.468;2023-04-20T08:36:52;95786.88;;;15.99;52.36
37068;BME280;22982;42.848;25.468;2023-04-20T08:41:55;95780.06;;;16.64;49.14
37068;BME280;22982;42.848;25.468;2023-04-20T08:46:58;95781.31;;;16.70;49.46
37068;BME280;22982;42.848;25.468;2023-04-20T08:52:01;95783.09;;;16.79;49.72
37068;BME280;22982;42.848;25.468;2023-04-20T08:57:04;95763.25;;;17.96;48.32
37068;BME280;22982;42.848;25.468;2023-04-20T09:02:11;95768.47;;;18.68;45.25
37068;BME280;22982;42.848;25.468;2023-04-20T09:07:19;95758.81;;;18.41;46.58
37068;BME280;22982;42.848;25.468;2023-04-20T09:12:23;95768.50;;;17.22;47.30
37068;BME280;22982;42.848;25.468;2023-04-20T09:17:31;95756.63;;;18.36;45.62
37068;BME280;22982;42.848;25.468;2023-04-20T09:22:36;95743.28;;;19.32;43.56
37068;BME280;22982;42.848;25.468;2023-04-20T09:27:39;95756.47;;;18.38;44.72
37068;BME280;22982;42.848;25.468;2023-04-20T09:32:41;95740.09;;;18.06;43.63
37068;BME280;22982;42.848;25.468;2023-04-20T09:37:47;95750.97;;;17.67;46.33
37068;BME280;22982;42.848;25.468;2023-04-20T09:42:52;95763.13;;;17.05;47.62
37068;BME280;22982;42.848;25.468;2023-04-20T09:47:56;95764.91;;;16.27;49.61
37068;BME280;22982;42.848;25.468;2023-04-20T09:52:59;95754.00;;;16.60;49.49
37068;BME280;22982;42.848;25.468;2023-04-20T09:58:03;95762.31;;;16.75;50.29
37068;BME280;22982;42.848;25.468;2023-04-20T10:03:06;95766.81;;;16.55;47.86
37068;BME280;22982;42.848;25.468;2023-04-20T10:08:11;95757.38;;;16.13;50.14
37068;BME280;22982;42.848;25.468;2023-04-20T10:13:15;95758.25;;;15.34;58.20
37068;BME280;22982;42.848;25.468;2023-04-20T10:18:23;95771.88;;;14.78;77.66
37068;BME280;22982;42.848;25.468;2023-04-20T10:23:27;95780.94;;;14.43;85.84
37068;BME280;22982;42.848;25.468;2023-04-20T10:28:39;95732.06;;;13.85;90.97
37068;BME280;22982;42.848;25.468;2023-04-20T10:33:53;95769.59;;;14.10;83.89
37068;BME280;22982;42.848;25.468;2023-04-20T10:38:57;95771.78;;;14.05;87.25
37068;BME280;22982;42.848;25.468;2023-04-20T10:44:07;95781.81;;;14.11;84.06
37068;BME280;22982;42.848;25.468;2023-04-20T10:49:10;95780.47;;;14.70;72.57
37068;BME280;22982;42.848;25.468;2023-04-20T10:54:12;95778.50;;;14.93;73.96
37068;BME280;22982;42.848;25.468;2023-04-20T10:59:21;95762.91;;;14.90;75.91
37068;BME280;22982;42.848;25.468;2023-04-20T11:04:31;95772.53;;;14.91;77.93
37068;BME280;22982;42.848;25.468;2023-04-20T11:09:35;95759.06;;;15.25;69.76
37068;BME280;22982;42.848;25.468;2023-04-20T11:14:55;95747.63;;;16.53;62.95
37068;BME280;22982;42.848;25.468;2023-04-20T11:25:17;95729.81;;;19.68;47.78
37068;BME280;22982;42.848;25.468;2023-04-20T11:30:20;95730.13;;;19.65;51.15
37068;BME280;22982;42.848;25.468;2023-04-20T11:35:22;95718.41;;;20.09;46.89
37068;BME280;22982;42.848;25.468;2023-04-20T11:40:26;95709.16;;;19.54;45.84
37068;BME280;22982;42.848;25.468;2023-04-20T11:45:31;95715.53;;;21.01;43.75
37068;BME280;22982;42.848;25.468;2023-04-20T11:50:38;95711.94;;;20.69;42.31
37068;BME280;22982;42.848;25.468;2023-04-20T11:55:43;95689.41;;;22.22;38.69
37068;BME280;22982;42.848;25.468;2023-04-20T12:00:46;95704.19;;;21.07;39.29
37068;BME280;22982;42.848;25.468;2023-04-20T12:05:48;95696.97;;;20.19;39.16
37068;BME280;22982;42.848;25.468;2023-04-20T12:10:52;95686.16;;;20.28;39.52
37068;BME280;22982;42.848;25.468;2023-04-20T12:15:56;95699.44;;;19.79;39.65
37068;BME280;22982;42.848;25.468;2023-04-20T12:20:59;95715.25;;;18.25;45.93
37068;BME280;22982;42.848;25.468;2023-04-20T12:26:03;95704.75;;;16.30;52.78
37068;BME280;22982;42.848;25.468;2023-04-20T12:31:05;95734.22;;;14.76;65.99
37068;BME280;22982;42.848;25.468;2023-04-20T12:36:09;95749.38;;;13.67;90.73
37068;BME280;22982;42.848;25.468;2023-04-20T12:41:14;95748.88;;;12.15;100.00
37068;BME280;22982;42.848;25.468;2023-04-20T12:46:18;95750.53;;;11.80;100.00
37068;BME280;22982;42.848;25.468;2023-04-20T12:51:21;95740.75;;;11.58;100.00
37068;BME280;22982;42.848;25.468;2023-04-20T12:56:24;95744.16;;;11.72;100.00
37068;BME280;22982;42.848;25.468;2023-04-20T13:01:26;95748.31;;;11.74;100.00
37068;BME280;22982;42.848;25.468;2023-04-20T13:06:29;95748.06;;;11.90;100.00
37068;BME280;22982;42.848;25.468;2023-04-20T13:11:34;95730.72;;;12.12;100.00
37068;BME280;22982;42.848;25.468;2023-04-20T13:16:36;95717.97;;;12.30;100.00
37068;BME280;22982;42.848;25.468;2023-04-20T13:21:39;95716.22;;;12.64;100.00
37068;BME280;22982;42.848;25.468;2023-04-20T13:26:42;95719.81;;;12.86;100.00
37068;BME280;22982;42.848;25.468;2023-04-20T13:31:44;95711.69;;;12.77;100.00
37068;BME280;22982;42.848;25.468;2023-04-20T13:36:49;95711.69;;;12.89;100.00
37068;BME280;22982;42.848;25.468;2023-04-20T13:41:51;95696.00;;;12.87;100.00
37068;BME280;22982;42.848;25.468;2023-04-20T13:46:54;95705.94;;;12.95;100.00
37068;BME280;22982;42.848;25.468;2023-04-20T13:51:56;95695.91;;;12.77;100.00
37068;BME280;22982;42.848;25.468;2023-04-20T13:56:59;95712.28;;;12.81;100.00
37068;BME280;22982;42.848;25.468;2023-04-20T14:02:02;95698.34;;;13.24;100.00
37068;BME280;22982;42.848;25.468;2023-04-20T14:07:05;95709.69;;;13.47;100.00
37068;BME280;22982;42.848;25.468;2023-04-20T14:12:09;95693.31;;;13.44;100.00
37068;BME280;22982;42.848;25.468;2023-04-20T14:17:11;95686.03;;;13.36;94.89
37068;BME280;22982;42.848;25.468;2023-04-20T14:22:15;95688.19;;;13.31;86.84
37068;BME280;22982;42.848;25.468;2023-04-20T14:27:17;95651.09;;;13.34;82.73
37068;BME280;22982;42.848;25.468;2023-04-20T14:32:21;95699.50;;;13.86;84.51
37068;BME280;22982;42.848;25.468;2023-04-20T14:37:23;95699.09;;;13.70;79.29
37068;BME280;22982;42.848;25.468;2023-04-20T14:42:28;95710.31;;;14.04;79.28
37068;BME280;22982;42.848;25.468;2023-04-20T14:47:30;95693.72;;;14.13;72.49
37068;BME280;22982;42.848;25.468;2023-04-20T14:52:33;95699.06;;;14.02;78.24
37068;BME280;22982;42.848;25.468;2023-04-20T14:57:37;95702.31;;;13.94;78.32
37068;BME280;22982;42.848;25.468;2023-04-20T15:02:40;95727.56;;;14.29;86.63
37068;BME280;22982;42.848;25.468;2023-04-20T15:07:43;95723.16;;;14.82;100.00
37068;BME280;22982;42.848;25.468;2023-04-20T15:12:47;95713.53;;;14.50;100.00
37068;BME280;22982;42.848;25.468;2023-04-20T15:17:50;95691.81;;;14.36;100.00
37068;BME280;22982;42.848;25.468;2023-04-20T15:22:52;95725.94;;;14.38;100.00
37068;BME280;22982;42.848;25.468;2023-04-20T15:27:55;95745.53;;;13.82;100.00
37068;BME280;22982;42.848;25.468;2023-04-20T15:32:58;95731.38;;;12.72;100.00
37068;BME280;22982;42.848;25.468;2023-04-20T15:38:05;95744.81;;;12.69;100.00
37068;BME280;22982;42.848;25.468;2023-04-20T15:43:08;95706.38;;;11.61;100.00
37068;BME280;22982;42.848;25.468;2023-04-20T15:48:11;95727.09;;;11.77;100.00
37068;BME280;22982;42.848;25.468;2023-04-20T15:53:13;95748.31;;;12.34;100.00
37068;BME280;22982;42.848;25.468;2023-04-20T15:58:16;95746.47;;;12.92;100.00
37068;BME280;22982;42.848;25.468;2023-04-20T16:03:18;95726.03;;;12.96;100.00
37068;BME280;22982;42.848;25.468;2023-04-20T16:08:22;95715.69;;;13.38;100.00
37068;BME280;22982;42.848;25.468;2023-04-20T16:13:24;95675.75;;;13.21;100.00
37068;BME280;22982;42.848;25.468;2023-04-20T16:18:27;95709.38;;;13.18;100.00
37068;BME280;22982;42.848;25.468;2023-04-20T16:23:31;95682.50;;;12.69;100.00
37068;BME280;22982;42.848;25.468;2023-04-20T16:28:33;95752.19;;;12.52;100.00
37068;BME280;22982;42.848;25.468;2023-04-20T16:33:37;95748.91;;;12.26;100.00
37068;BME280;22982;42.848;25.468;2023-04-20T16:38:42;95742.19;;;11.62;100.00
37068;BME280;22982;42.848;25.468;2023-04-20T16:43:45;95720.63;;;11.09;100.00
37068;BME280;22982;42.848;25.468;2023-04-20T16:48:56;95722.78;;;10.91;100.00
37068;BME280;22982;42.848;25.468;2023-04-20T16:54:03;95740.97;;;10.68;100.00
37068;BME280;22982;42.848;25.468;2023-04-20T16:59:06;95791.81;;;10.66;100.00
37068;BME280;22982;42.848;25.468;2023-04-20T17:04:09;95802.75;;;10.60;100.00
37068;BME280;22982;42.848;25.468;2023-04-20T17:09:12;95809.25;;;10.67;100.00
37068;BME280;22982;42.848;25.468;2023-04-20T17:14:15;95811.66;;;10.70;100.00
37068;BME280;22982;42.848;25.468;2023-04-20T17:19:19;95820.25;;;10.59;100.00
37068;BME280;22982;42.848;25.468;2023-04-20T17:24:21;95829.78;;;10.73;100.00
37068;BME280;22982;42.848;25.468;2023-04-20T17:29:25;95824.25;;;10.65;100.00
37068;BME280;22982;42.848;25.468;2023-04-20T17:34:27;95840.06;;;10.76;100.00
37068;BME280;22982;42.848;25.468;2023-04-20T17:39:30;95857.72;;;10.74;100.00
37068;BME280;22982;42.848;25.468;2023-04-20T17:44:33;95874.06;;;10.78;100.00
37068;BME280;22982;42.848;25.468;2023-04-20T17:49:35;95890.75;;;10.77;100.00
37068;BME280;22982;42.848;25.468;2023-04-20T17:54:37;95883.88;;;10.48;100.00
37068;BME280;22982;42.848;25.468;2023-04-20T17:59:46;95855.25;;;10.18;100.00
37068;BME280;22982;42.848;25.468;2023-04-20T18:04:49;95887.19;;;10.10;100.00
37068;BME280;22982;42.848;25.468;2023-04-20T18:09:52;95868.78;;;9.85;100.00
37068;BME280;22982;42.848;25.468;2023-04-20T18:14:57;95886.16;;;9.86;100.00
37068;BME280;22982;42.848;25.468;2023-04-20T18:20:00;95860.63;;;9.75;100.00
37068;BME280;22982;42.848;25.468;2023-04-20T18:25:04;95893.78;;;10.03;100.00
37068;BME280;22982;42.848;25.468;2023-04-20T18:30:07;95924.44;;;10.15;100.00
37068;BME280;22982;42.848;25.468;2023-04-20T18:35:11;95908.72;;;10.15;100.00
37068;BME280;22982;42.848;25.468;2023-04-20T18:40:16;95886.78;;;9.89;100.00
37068;BME280;22982;42.848;25.468;2023-04-20T18:45:18;95891.47;;;9.84;100.00
37068;BME280;22982;42.848;25.468;2023-04-20T18:50:23;95910.47;;;9.73;100.00
37068;BME280;22982;42.848;25.468;2023-04-20T18:55:25;95896.84;;;9.68;100.00
37068;BME280;22982;42.848;25.468;2023-04-20T19:00:28;95898.38;;;9.58;100.00
37068;BME280;22982;42.848;25.468;2023-04-20T19:05:31;95877.97;;;9.63;100.00
37068;BME280;22982;42.848;25.468;2023-04-20T19:10:34;95870.31;;;9.60;100.00
37068;BME280;22982;42.848;25.468;2023-04-20T19:15:36;95891.25;;;9.60;100.00
37068;BME280;22982;42.848;25.468;2023-04-20T19:20:41;95869.09;;;9.51;100.00
37068;BME280;22982;42.848;25.468;2023-04-20T19:25:43;95879.22;;;9.43;100.00
37068;BME280;22982;42.848;25.468;2023-04-20T19:30:46;95878.38;;;9.43;100.00
37068;BME280;22982;42.848;25.468;2023-04-20T19:35:49;95894.25;;;9.54;100.00
37068;BME280;22982;42.848;25.468;2023-04-20T19:40:52;95876.09;;;9.65;100.00
37068;BME280;22982;42.848;25.468;2023-04-20T19:45:54;95874.91;;;9.42;100.00
37068;BME280;22982;42.848;25.468;2023-04-20T19:51:02;95874.91;;;9.42;100.00
37068;BME280;22982;42.848;25.468;2023-04-20T19:56:32;95839.03;;;9.30;100.00
37068;BME280;22982;42.848;25.468;2023-04-20T20:01:38;95843.69;;;9.53;100.00
37068;BME280;22982;42.848;25.468;2023-04-20T20:06:40;95845.84;;;9.47;100.00
37068;BME280;22982;42.848;25.468;2023-04-20T20:11:45;95888.44;;;9.77;100.00
37068;BME280;22982;42.848;25.468;2023-04-20T20:16:51;95885.03;;;9.75;100.00
37068;BME280;22982;42.848;25.468;2023-04-20T20:21:58;95892.22;;;9.86;100.00
37068;BME280;22982;42.848;25.468;2023-04-20T20:27:01;95857.78;;;9.65;100.00
37068;BME280;22982;42.848;25.468;2023-04-20T20:32:04;95884.53;;;9.56;100.00
37068;BME280;22982;42.848;25.468;2023-04-20T20:37:06;95865.88;;;9.19;100.00
37068;BME280;22982;42.848;25.468;2023-04-20T20:42:11;95879.50;;;9.24;100.00
37068;BME280;22982;42.848;25.468;2023-04-20T20:47:16;95873.22;;;9.27;100.00
37068;BME280;22982;42.848;25.468;2023-04-20T20:52:20;95843.94;;;9.22;100.00
37068;BME280;22982;42.848;25.468;2023-04-20T20:57:23;95869.84;;;9.53;100.00
37068;BME280;22982;42.848;25.468;2023-04-20T21:02:26;95880.00;;;9.72;100.00
37068;BME280;22982;42.848;25.468;2023-04-20T21:07:29;95866.38;;;9.67;100.00
37068;BME280;22982;42.848;25.468;2023-04-20T21:12:31;95849.84;;;9.67;100.00
37068;BME280;22982;42.848;25.468;2023-04-20T21:17:34;95859.63;;;9.77;100.00
37068;BME280;22982;42.848;25.468;2023-04-20T21:22:36;95865.13;;;9.73;100.00
37068;BME280;22982;42.848;25.468;2023-04-20T21:27:40;95842.69;;;9.42;100.00
37068;BME280;22982;42.848;25.468;2023-04-20T21:32:42;95859.66;;;9.63;100.00
37068;BME280;22982;42.848;25.468;2023-04-20T21:37:45;95840.16;;;9.40;100.00
37068;BME280;22982;42.848;25.468;2023-04-20T21:42:48;95868.13;;;9.39;100.00
37068;BME280;22982;42.848;25.468;2023-04-20T21:47:51;95866.41;;;9.53;100.00
37068;BME280;22982;42.848;25.468;2023-04-20T21:52:55;95851.84;;;9.49;100.00
37068;BME280;22982;42.848;25.468;2023-04-20T21:57:57;95847.72;;;9.30;100.00
37068;BME280;22982;42.848;25.468;2023-04-20T22:03:19;95853.44;;;9.37;100.00
37068;BME280;22982;42.848;25.468;2023-04-20T22:08:21;95838.22;;;9.15;100.00
37068;BME280;22982;42.848;25.468;2023-04-20T22:13:25;95839.88;;;9.16;100.00
37068;BME280;22982;42.848;25.468;2023-04-20T22:18:27;95844.75;;;9.08;100.00
37068;BME280;22982;42.848;25.468;2023-04-20T22:23:30;95822.06;;;9.08;100.00
37068;BME280;22982;42.848;25.468;2023-04-20T22:28:32;95796.94;;;9.06;100.00
37068;BME280;22982;42.848;25.468;2023-04-20T22:33:36;95824.84;;;9.19;100.00
37068;BME280;22982;42.848;25.468;2023-04-20T22:38:38;95833.00;;;9.15;100.00
37068;BME280;22982;42.848;25.468;2023-04-20T22:43:41;95813.00;;;9.14;100.00
37068;BME280;22982;42.848;25.468;2023-04-20T22:48:44;95798.25;;;8.98;100.00
37068;BME280;22982;42.848;25.468;2023-04-20T22:53:49;95820.00;;;9.13;100.00
37068;BME280;22982;42.848;25.468;2023-04-20T22:58:52;95793.38;;;9.07;100.00
37068;BME280;22982;42.848;25.468;2023-04-20T23:03:54;95783.13;;;9.04;100.00
37068;BME280;22982;42.848;25.468;2023-04-20T23:08:57;95777.03;;;9.03;100.00
37068;BME280;22982;42.848;25.468;2023-04-20T23:14:00;95794.69;;;9.14;100.00
37068;BME280;22982;42.848;25.468;2023-04-20T23:19:04;95781.03;;;9.09;100.00
37068;BME280;22982;42.848;25.468;2023-04-20T23:24:06;95797.03;;;9.04;100.00
37068;BME280;22982;42.848;25.468;2023-04-20T23:29:09;95785.00;;;9.02;100.00
37068;BME280;22982;42.848;25.468;2023-04-20T23:34:11;95762.59;;;8.83;100.00
37068;BME280;22982;42.848;25.468;2023-04-20T23:39:15;95762.78;;;8.94;100.00
37068;BME280;22982;42.848;25.468;2023-04-20T23:44:18;95774.25;;;9.06;100.00
37068;BME280;22982;42.848;25.468;2023-04-20T23:49:21;95773.13;;;8.81;100.00
37068;BME280;22982;42.848;25.468;2023-04-20T23:54:23;95758.22;;;8.69;100.00
37068;BME280;22982;42.848;25.468;2023-04-20T23:59:26;95762.88;;;8.78;100.00
